Home > Products > Valid Products > TAF

000
FTUS45 KBOI 260540
TAFBOI
TAF
KBOI 260540Z 2606/2706 28010KT P6SM VCSH SCT060 BKN100
     FM261000 33010KT P6SM -SHRA BKN050 OVC080
     FM261500 30010KT P6SM VCSH SCT050 BKN080
     FM261900 31012G22KT P6SM SCT080 BKN150
     FM270300 30008KT P6SM SCT100=



000
FTUS45 KBOI 260540
TAFBKE
TAF
KBKE 260540Z 2606/2706 20015G25KT P6SM -SHRA BKN060
     FM260800 25012KT P6SM VCSH OVC040
     FM261300 28010G20KT P6SM SCT060 BKN080
     FM270100 28008KT P6SM SCT080=



000
FTUS45 KBOI 260540
TAFTWF
TAF
KTWF 260540Z 2606/2706 25010KT P6SM SCT050 BKN120
     FM261300 27012G22KT P6SM -SHRA BKN050 OVC080
     FM261800 29015G25KT P6SM SCT050 BKN100
     FM270300 23010G20KT P6SM SCT100=



000
FTUS45 KBOI 260540
TAFBNO
TAF
KBNO 260540Z 2606/2706 22010KT P6SM VCSH SCT050 BKN080
     FM261600 24012G22KT P6SM SCT080 BKN120
     FM270000 25008KT P6SM SCT200=



000
FTUS45 KBOI 260540
TAFJER
TAF
KJER 260540Z 2606/2706 25012KT P6SM SCT050 BKN120
     FM261200 25010KT P6SM -SHRA BKN050 OVC080
     FM261600 24012G22KT P6SM SCT070 BKN100
     FM270300 23010KT P6SM SCT120=



000
FTUS45 KBOI 260540
TAFMYL
TAF
KMYL 260540Z 2606/2706 20010G20KT P6SM -SHRA SCT030 OVC050
     FM260900 19010KT 6SM -RA OVC025
     FM261400 20012KT P6SM -RA BKN025 OVC035
     FM261800 24015KT P6SM VCSH BKN050 OVC080
     FM270300 27008KT P6SM SCT060 BKN080=



000
FTUS45 KBOI 260540
TAFTWF
TAF
KTWF 260540Z 2606/2706 25010KT P6SM SCT050 BKN120
     FM261300 27012G22KT P6SM -SHRA BKN050 OVC080
     FM261800 29015G25KT P6SM SCT050 BKN100
     FM270300 23010G20KT P6SM SCT100=



000
FTUS45 KBOI 260540
TAFBKE
TAF
KBKE 260540Z 2606/2706 20015G25KT P6SM -SHRA BKN060
     FM260800 25012KT P6SM VCSH OVC040
     FM261300 28010G20KT P6SM SCT060 BKN080
     FM270100 28008KT P6SM SCT080=



000
FTUS45 KBOI 260540
TAFBOI
TAF
KBOI 260540Z 2606/2706 28010KT P6SM VCSH SCT060 BKN100
     FM261000 33010KT P6SM -SHRA BKN050 OVC080
     FM261500 30010KT P6SM VCSH SCT050 BKN080
     FM261900 31012G22KT P6SM SCT080 BKN150
     FM270300 30008KT P6SM SCT100=



000
FTUS45 KBOI 260540
TAFBNO
TAF
KBNO 260540Z 2606/2706 22010KT P6SM VCSH SCT050 BKN080
     FM261600 24012G22KT P6SM SCT080 BKN120
     FM270000 25008KT P6SM SCT200=



000
FTUS45 KBOI 260540
TAFJER
TAF
KJER 260540Z 2606/2706 25012KT P6SM SCT050 BKN120
     FM261200 25010KT P6SM -SHRA BKN050 OVC080
     FM261600 24012G22KT P6SM SCT070 BKN100
     FM270300 23010KT P6SM SCT120=



000
FTUS45 KBOI 260540
TAFMYL
TAF
KMYL 260540Z 2606/2706 20010G20KT P6SM -SHRA SCT030 OVC050
     FM260900 19010KT 6SM -RA OVC025
     FM261400 20012KT P6SM -RA BKN025 OVC035
     FM261800 24015KT P6SM VCSH BKN050 OVC080
     FM270300 27008KT P6SM SCT060 BKN080=



000
FTUS45 KBOI 260421 AAE
TAFBOI
TAF AMD
KBOI 260421Z 2604/2624 28010KT P6SM VCSH SCT060 BKN100
     FM261000 33010KT P6SM -SHRA BKN050 OVC080
     FM261500 30010KT P6SM VCSH SCT050 BKN080
     FM261900 31012G22KT P6SM SCT080 BKN150=



000
FTUS45 KBOI 260421 AAE
TAFBOI
TAF AMD
KBOI 260421Z 2604/2624 28010KT P6SM VCSH SCT060 BKN100
     FM261000 33010KT P6SM -SHRA BKN050 OVC080
     FM261500 30010KT P6SM VCSH SCT050 BKN080
     FM261900 31012G22KT P6SM SCT080 BKN150=



000
FTUS45 KBOI 260420 AAD
TAFTWF
TAF AMD
KTWF 260420Z 2604/2624 25015KT P6SM SCT050 BKN120
     FM261300 27012G22KT P6SM -SHRA BKN050 OVC080
     FM261800 29015G25KT P6SM SCT050 BKN100=



000
FTUS45 KBOI 260419 AAB
TAFMYL
TAF AMD
KMYL 260419Z 2604/2624 20010KT P6SM -SHRA SCT030 OVC050
     FM260900 19010KT 6SM -RA OVC025
     FM261400 20012KT P6SM -RA BKN025 OVC035
     FM261800 24015KT P6SM BKN050 OVC080=



000
FTUS45 KBOI 260417 AAB
TAFBNO
TAF AMD
KBNO 260417Z 2604/2624 22010KT P6SM VCSH SCT050 BKN080
     FM261600 24012G22KT P6SM SCT080 BKN120=



000
FTUS45 KBOI 260417 AAB
TAFBNO
TAF AMD
KBNO 260417Z 2604/2624 22010KT P6SM VCSH SCT050 BKN080
     FM261600 24012G22KT P6SM SCT080 BKN120=



000
FTUS45 KBOI 260415 AAB
TAFBKE
TAF AMD
KBKE 260415Z 2604/2624 20015G25KT P6SM -SHRA BKN060
     FM260800 25012KT P6SM VCSH OVC040
     FM261300 28010G20KT P6SM SCT060 BKN080=



000
FTUS45 KBOI 260415 AAB
TAFBKE
TAF AMD
KBKE 260415Z 2604/2624 20015G25KT P6SM -SHRA BKN060
     FM260800 25012KT P6SM VCSH OVC040
     FM261300 28010G20KT P6SM SCT060 BKN080=



000
FTUS45 KBOI 260300 AAA
TAFBKE
TAF AMD
KBKE 260300Z 2603/2624 22015G25KT P6SM -SHRA BKN060
     FM260800 25012KT P6SM VCSH OVC040
     FM261300 28010G20KT P6SM SCT060 BKN080=



000
FTUS45 KBOI 260253 AAD
TAFBOI
TAF AMD
KBOI 260253Z 2603/2624 25015G25KT P6SM VCSH SCT060 BKN100
     FM261000 33010KT P6SM -SHRA BKN050 OVC080
     FM261500 30010KT P6SM VCSH SCT050 BKN080
     FM261900 31012G22KT P6SM SCT080 BKN150=



000
FTUS45 KBOI 260246 AAC
TAFTWF
TAF AMD
KTWF 260246Z 2603/2624 25018G28KT P6SM SCT050 BKN120
     FM261300 27012G22KT P6SM -SHRA BKN050 OVC080
     FM261800 29015G25KT P6SM SCT050 BKN100=



000
FTUS45 KBOI 260201 AAB
TAFTWF
TAF AMD
KTWF 260201Z 2602/2624 20010KT P6SM BKN080 OVC120
     FM260400 27018G28KT P6SM SCT050 BKN120
     FM261300 27012G22KT P6SM -SHRA BKN050 OVC080
     FM261800 29015G25KT P6SM SCT050 BKN100=



000
FTUS45 KBOI 260201 AAB
TAFTWF
TAF AMD
KTWF 260201Z 2602/2624 20010KT P6SM BKN080 OVC120
     FM260400 27018G28KT P6SM SCT050 BKN120
     FM261300 27012G22KT P6SM -SHRA BKN050 OVC080
     FM261800 29015G25KT P6SM SCT050 BKN100=



000
FTUS45 KBOI 260157 AAA
TAFMYL
TAF AMD
KMYL 260157Z 2602/2624 18010G20KT P6SM BKN080 BKN120
     FM260400 20012KT P6SM -SHRA SCT030 OVC050
     FM260900 19010KT 6SM -RA OVC025
     FM261400 20012KT P6SM -RA BKN025 OVC035
     FM261800 24015KT P6SM BKN050 OVC080=



000
FTUS45 KBOI 260157 AAA
TAFMYL
TAF AMD
KMYL 260157Z 2602/2624 18010G20KT P6SM BKN080 BKN120
     FM260400 20012KT P6SM -SHRA SCT030 OVC050
     FM260900 19010KT 6SM -RA OVC025
     FM261400 20012KT P6SM -RA BKN025 OVC035
     FM261800 24015KT P6SM BKN050 OVC080=



000
FTUS45 KBOI 260155 AAA
TAFBNO
TAF AMD
KBNO 260155Z 2602/2624 24015G25KT P6SM VCSH OVC050
     FM260500 23012G22KT P6SM -SHRA BKN040 OVC070
     FM261200 24008KT P6SM SCT050 BKN080
     FM261600 24012G22KT P6SM SCT080 BKN120=



000
FTUS45 KBOI 260155 AAA
TAFBNO
TAF AMD
KBNO 260155Z 2602/2624 24015G25KT P6SM VCSH OVC050
     FM260500 23012G22KT P6SM -SHRA BKN040 OVC070
     FM261200 24008KT P6SM SCT050 BKN080
     FM261600 24012G22KT P6SM SCT080 BKN120=



000
FTUS45 KBOI 260007 AAA
TAFTWF
TAF AMD
KTWF 260007Z 2600/2624 22015G25KT 6SM BLDU BKN035 OVC080
      TEMPO 2600/2603 22018KT 5SM BLDU BKN025 OVC050
     FM260400 27018G28KT P6SM SCT050 BKN120
     FM261300 27012G22KT P6SM -SHRA BKN050 OVC080
     FM261800 29015G25KT P6SM SCT050 BKN100=



000
FTUS45 KBOI 252331
TAFBKE
TAF
KBKE 252331Z 2600/2624 14020G30KT P6SM SCT080 BKN100
     FM260300 12015G25KT P6SM VCSH BKN060
     FM260800 25012KT P6SM -SHRA OVC040
     FM261300 28010G20KT P6SM SCT060 BKN080=



000
FTUS45 KBOI 252331
TAFBNO
TAF
KBNO 252331Z 2600/2624 18020G30KT P6SM SCT080
     FM260200 19015G25KT P6SM VCSH OVC050
     FM260500 23012G22KT P6SM -SHRA BKN040 OVC070
     FM261200 24008KT P6SM SCT050 BKN080
     FM261600 24012G22KT P6SM SCT080 BKN120=



000
FTUS45 KBOI 252331
TAFJER
TAF
KJER 252331Z 2600/2624 23010KT P6SM BKN120
     FM260400 25012KT P6SM SCT050 BKN120
     FM261200 25010KT P6SM -SHRA BKN050 OVC080
     FM261600 24012G22KT P6SM SCT070 BKN100=



000
FTUS45 KBOI 252331
TAFTWF
TAF
KTWF 252331Z 2600/2624 22015G25KT P6SM SCT050 BKN120
     FM260400 27018G28KT P6SM SCT050 BKN120
     FM261300 27012G22KT P6SM -SHRA BKN050 OVC080
     FM261800 29015G25KT P6SM SCT050 BKN100=



000
FTUS45 KBOI 252331
TAFMYL
TAF
KMYL 252331Z 2600/2624 15012G20KT P6SM BKN080 BKN120
     FM260300 16012KT P6SM -SHRA SCT030 OVC050
     FM260900 19010KT 6SM -RA OVC025
     FM261400 20012KT P6SM -RA BKN025 OVC035
     FM261800 24015KT P6SM BKN050 OVC080=



000
FTUS45 KBOI 252331
TAFBOI
TAF
KBOI 252331Z 2600/2624 14006KT P6SM BKN150
     FM260300 12012KT P6SM VCSH SCT060 BKN100
     FM261000 33010KT P6SM -SHRA BKN050 OVC080
     FM261500 30010KT P6SM VCSH SCT050 BKN080
     FM261900 31012G22KT P6SM SCT080 BKN150=



000
FTUS45 KBOI 252104 AAC
TAFJER
TAF AMD
KJER 252104Z 2521/2618 20008KT P6SM BKN250
     FM252300 24010KT P6SM BKN250
     FM261400 24015G25KT P6SM VCSH SCT070 BKN100=



000
FTUS45 KBOI 252001 AAB
TAFJER
TAF AMD
KJER 252001Z 2520/2618 15012KT P6SM BKN250
     FM252300 24010KT P6SM BKN250
     FM261400 24015G25KT P6SM VCSH SCT070 BKN100=



000
FTUS45 KBOI 251905 AAA
TAFBNO
TAF AMD
KBNO 251905Z 2519/2618 21020G30KT P6SM BKN080 OVC120
     FM260200 19015G25KT P6SM -SHRA OVC050
     FM260600 23012G20KT P6SM -SHRA BKN040 OVC070
     FM261200 24008KT P6SM VCSH SCT050=



000
FTUS45 KBOI 251905 AAA
TAFBNO
TAF AMD
KBNO 251905Z 2519/2618 21020G30KT P6SM BKN080 OVC120
     FM260200 19015G25KT P6SM -SHRA OVC050
     FM260600 23012G20KT P6SM -SHRA BKN040 OVC070
     FM261200 24008KT P6SM VCSH SCT050=



000
FTUS45 KBOI 251904 AAA
TAFJER
TAF AMD
KJER 251904Z 2519/2618 17015G25KT P6SM BKN250
     FM252300 24010KT P6SM BKN250
     FM261400 24015G25KT P6SM VCSH SCT070 BKN100=



000
FTUS45 KBOI 251904 AAA
TAFJER
TAF AMD
KJER 251904Z 2519/2618 17015G25KT P6SM BKN250
     FM252300 24010KT P6SM BKN250
     FM261400 24015G25KT P6SM VCSH SCT070 BKN100=



000
FTUS45 KBOI 251903 AAA
TAFTWF
TAF AMD
KTWF 251903Z 2519/2618 16020G30KT P6SM BKN250
     FM252100 22015G25KT P6SM BKN250
     FM261400 25018G26KT P6SM VCSH SCT080 BKN120=



000
FTUS45 KBOI 251903 AAA
TAFTWF
TAF AMD
KTWF 251903Z 2519/2618 16020G30KT P6SM BKN250
     FM252100 22015G25KT P6SM BKN250
     FM261400 25018G26KT P6SM VCSH SCT080 BKN120=



000
FTUS45 KBOI 251736
TAFBNO
TAF
KBNO 251736Z 2518/2618 15023G31KT P6SM BKN120
     FM260200 19015G25KT P6SM -SHRA OVC050
     FM260600 23012G20KT P6SM -SHRA BKN040 OVC070
     FM261200 24008KT P6SM VCSH SCT050=



000
FTUS45 KBOI 251736
TAFMYL
TAF
KMYL 251736Z 2518/2618 VRB04KT P6SM OVC150
     FM252100 17018G25KT P6SM FEW060 BKN120
     FM260300 16012KT P6SM -SHRA SCT030 OVC050
     FM260900 19012KT 3SM -RA OVC025=



000
FTUS45 KBOI 251736
TAFBOI
TAF
KBOI 251736Z 2518/2618 13010KT P6SM BKN200
     FM252300 14014G21KT P6SM BKN120
     FM260500 12012KT P6SM VCSH SCT060 BKN100
     FM261000 33010KT P6SM -RA BKN050 OVC080=



000
FTUS45 KBOI 251736
TAFTWF
TAF
KTWF 251736Z 2518/2618 15012KT P6SM BKN250
     FM252100 22015G25KT P6SM BKN250
     FM261400 25018G26KT P6SM VCSH SCT080 BKN120=



000
FTUS45 KBOI 251736
TAFBKE
TAF
KBKE 251736Z 2518/2618 12015G25KT P6SM BKN150
     FM252100 14020G30KT P6SM BKN080
     FM260300 12015G25KT P6SM VCSH BKN060
     FM260900 23012KT P6SM -SHRA OVC040
     FM261500 29006KT P6SM VCSH SCT050=



000
FTUS45 KBOI 251736
TAFJER
TAF
KJER 251736Z 2518/2618 13012KT P6SM BKN250
     FM252300 24010KT P6SM BKN250
     FM261400 24015G25KT P6SM VCSH SCT070 BKN100=



000
FTUS45 KBOI 251736
TAFBKE
TAF
KBKE 251736Z 2518/2618 12015G25KT P6SM BKN150
     FM252100 14020G30KT P6SM BKN080
     FM260300 12015G25KT P6SM VCSH BKN060
     FM260900 23012KT P6SM -SHRA OVC040
     FM261500 29006KT P6SM VCSH SCT050=



000
FTUS45 KBOI 251736
TAFTWF
TAF
KTWF 251736Z 2518/2618 15012KT P6SM BKN250
     FM252100 22015G25KT P6SM BKN250
     FM261400 25018G26KT P6SM VCSH SCT080 BKN120=



000
FTUS45 KBOI 251736
TAFJER
TAF
KJER 251736Z 2518/2618 13012KT P6SM BKN250
     FM252300 24010KT P6SM BKN250
     FM261400 24015G25KT P6SM VCSH SCT070 BKN100=



000
FTUS45 KBOI 251736
TAFMYL
TAF
KMYL 251736Z 2518/2618 VRB04KT P6SM OVC150
     FM252100 17018G25KT P6SM FEW060 BKN120
     FM260300 16012KT P6SM -SHRA SCT030 OVC050
     FM260900 19012KT 3SM -RA OVC025=



000
FTUS45 KBOI 251736
TAFBOI
TAF
KBOI 251736Z 2518/2618 13010KT P6SM BKN200
     FM252300 14014G21KT P6SM BKN120
     FM260500 12012KT P6SM VCSH SCT060 BKN100
     FM261000 33010KT P6SM -RA BKN050 OVC080=



000
FTUS45 KBOI 251736
TAFBNO
TAF
KBNO 251736Z 2518/2618 15023G31KT P6SM BKN120
     FM260200 19015G25KT P6SM -SHRA OVC050
     FM260600 23012G20KT P6SM -SHRA BKN040 OVC070
     FM261200 24008KT P6SM VCSH SCT050=



000
FTUS45 KBOI 251640 AAA
TAFMYL
TAF AMD
KMYL 251640Z 2517/2612 00000KT 1/2SM FG OVC002
     FM252000 18010KT P6SM FEW060
     FM260300 15010KT P6SM -SHRA SCT030 OVC050
     FM260900 15010KT 3SM -RA OVC025=



000
FTUS45 KBOI 251640 AAA
TAFMYL
TAF AMD
KMYL 251640Z 2517/2612 00000KT 1/2SM FG OVC002
     FM252000 18010KT P6SM FEW060
     FM260300 15010KT P6SM -SHRA SCT030 OVC050
     FM260900 15010KT 3SM -RA OVC025=



000
FTUS45 KBOI 251638 AAA
TAFJER
TAF AMD
KJER 251638Z 2517/2612 04012KT P6SM SKC
     FM252300 24008KT P6SM SKC
     FM260300 21006KT P6SM BKN200=



000
FTUS45 KBOI 251638 AAA
TAFJER
TAF AMD
KJER 251638Z 2517/2612 04012KT P6SM SKC
     FM252300 24008KT P6SM SKC
     FM260300 21006KT P6SM BKN200=



000
FTUS45 KBOI 251636 AAB
TAFTWF
TAF AMD
KTWF 251636Z 2517/2612 18010KT P6SM SKC
     FM252300 21018G28KT P6SM SKC
     FM260300 24016KT P6SM BKN200=



000
FTUS45 KBOI 251636 AAB
TAFTWF
TAF AMD
KTWF 251636Z 2517/2612 18010KT P6SM SKC
     FM252300 21018G28KT P6SM SKC
     FM260300 24016KT P6SM BKN200=



000
FTUS45 KBOI 251635 AAB
TAFBOI
TAF AMD
KBOI 251635Z 2517/2612 00000KT P6SM VCFG BKN200
     FM251800 13012KT P6SM BKN200
     FM252300 14010KT P6SM BKN100=



000
FTUS45 KBOI 251635 AAB
TAFBOI
TAF AMD
KBOI 251635Z 2517/2612 00000KT P6SM VCFG BKN200
     FM251800 13012KT P6SM BKN200
     FM252300 14010KT P6SM BKN100=



000
FTUS45 KBOI 251513 AAA
TAFBNO
TAF AMD
KBNO 251513Z 2515/2612 VRB05KT P6SM BKN150
     FM251900 17025G35KT P6SM BKN120
     FM260200 18015G25KT P6SM -SHRA SCT030 OVC050
     FM260900 23014KT P6SM VCSH SCT040 OVC070=



000
FTUS45 KBOI 251410 AAB
TAFBOI
TAF AMD
KBOI 251410Z 2514/2612 00000KT P6SM VCFG BKN200
     FM251600 13012KT P6SM BKN200
     FM252300 14010KT P6SM BKN100=



000
FTUS45 KBOI 251309 AAA
TAFBKE
TAF AMD
KBKE 251309Z 2513/2612 13006KT 6SM BR SCT002
     FM251500 13011KT P6SM BKN250
     FM252100 12020G30KT P6SM BKN080
     FM260300 12015G25KT P6SM BKN080
     FM260900 24015KT P6SM VCSH OVC060=



000
FTUS45 KBOI 251258 AAA
TAFTWF
TAF AMD
KTWF 251258Z 2513/2612 17015G25KT P6SM SKC
     FM252300 21018G28KT P6SM SKC
     FM260300 24016KT P6SM BKN200=



000
FTUS45 KBOI 251138
TAFMYL
TAF
KMYL 251138Z 2512/2612 00000KT 1/4SM FG OVC001
     FM251600 VRB03KT 6SM BR SCT001
     FM251900 17011KT P6SM FEW060
     FM260300 15010KT P6SM -SHRA SCT030 OVC050
     FM260900 15010KT 3SM -RA OVC025=



000
FTUS45 KBOI 251138
TAFTWF
TAF
KTWF 251138Z 2512/2612 17010KT P6SM SKC
     FM252300 21012KT P6SM SKC
     FM260300 24018KT P6SM BKN200=



000
FTUS45 KBOI 251138
TAFBOI
TAF
KBOI 251138Z 2512/2612 10008KT 6SM BR SCT002
      TEMPO 2512/2513 1/2SM FG OVC002
     FM251500 13012KT P6SM SCT200
     FM252300 14010KT P6SM BKN100=



000
FTUS45 KBOI 251138
TAFJER
TAF
KJER 251138Z 2512/2612 04016KT P6SM SKC
     FM252300 24008KT P6SM SKC
     FM260300 21006KT P6SM BKN200=



000
FTUS45 KBOI 251138
TAFJER
TAF
KJER 251138Z 2512/2612 04016KT P6SM SKC
     FM252300 24008KT P6SM SKC
     FM260300 21006KT P6SM BKN200=



000
FTUS45 KBOI 251138
TAFTWF
TAF
KTWF 251138Z 2512/2612 17010KT P6SM SKC
     FM252300 21012KT P6SM SKC
     FM260300 24018KT P6SM BKN200=



000
FTUS45 KBOI 251138
TAFBOI
TAF
KBOI 251138Z 2512/2612 10008KT 6SM BR SCT002
      TEMPO 2512/2513 1/2SM FG OVC002
     FM251500 13012KT P6SM SCT200
     FM252300 14010KT P6SM BKN100=



000
FTUS45 KBOI 251138
TAFMYL
TAF
KMYL 251138Z 2512/2612 00000KT 1/4SM FG OVC001
     FM251600 VRB03KT 6SM BR SCT001
     FM251900 17011KT P6SM FEW060
     FM260300 15010KT P6SM -SHRA SCT030 OVC050
     FM260900 15010KT 3SM -RA OVC025=



000
FTUS45 KBOI 251120
TAFBKE
TAF
KBKE 251120Z 2512/2612 00000KT 1/2SM FG OVC002
     FM251700 13011KT P6SM BKN250
     FM252100 12020G30KT P6SM BKN080
     FM260300 12015G25KT P6SM BKN080
     FM260900 24015KT P6SM VCSH OVC060=



000
FTUS45 KBOI 251120
TAFBNO
TAF
KBNO 251120Z 2512/2612 VRB03KT P6SM BKN250
     FM251500 14015KT P6SM SCT080
     FM251900 17025G35KT P6SM BKN080
     FM260200 18015G25KT P6SM -SHRA SCT030 OVC050
     FM260900 23014KT P6SM VCSH SCT040 OVC070=



000
FTUS45 KBOI 251120
TAFBNO
TAF
KBNO 251120Z 2512/2612 VRB03KT P6SM BKN250
     FM251500 14015KT P6SM SCT080
     FM251900 17025G35KT P6SM BKN080
     FM260200 18015G25KT P6SM -SHRA SCT030 OVC050
     FM260900 23014KT P6SM VCSH SCT040 OVC070=



000
FTUS45 KBOI 251120
TAFBKE
TAF
KBKE 251120Z 2512/2612 00000KT 1/2SM FG OVC002
     FM251700 13011KT P6SM BKN250
     FM252100 12020G30KT P6SM BKN080
     FM260300 12015G25KT P6SM BKN080
     FM260900 24015KT P6SM VCSH OVC060=



000
FTUS45 KBOI 250958 AAD
TAFBOI
TAF AMD
KBOI 250958Z 2510/2606 00000KT 1/4SM FG OVC001
     FM251200 10008KT 6SM BR SCT002
     FM251500 13012KT P6SM SCT200
     FM252300 14010KT P6SM BKN100=



000
FTUS45 KBOI 250840 AAC
TAFBOI
TAF AMD
KBOI 250840Z 2509/2606 00000KT 3SM BR SCT002
      TEMPO 2509/2512 1/4SM FG OVC001
     FM251200 10008KT 6SM BR SCT002
     FM251500 13012KT P6SM SCT200
     FM252300 14010KT P6SM BKN100=



000
FTUS45 KBOI 250717 AAB
TAFBKE
TAF AMD
KBKE 250717Z 2507/2606 00000KT 1/2SM FG OVC002
     FM251500 12012KT P6SM OVC250
     FM252100 12020G30KT P6SM BKN080
     FM260300 12015G25KT P6SM BKN080=



000
FTUS45 KBOI 250710 AAB
TAFBOI
TAF AMD
KBOI 250710Z 2507/2606 14005KT 6SM BR SCT200
      TEMPO 2507/2511 1SM BR
     FM251500 13012KT P6SM SCT200
     FM252300 14010KT P6SM BKN100=



000
FTUS45 KBOI 250614 AAA
TAFBKE
TAF AMD
KBKE 250614Z 2506/2606 13005KT 6SM BR OVC250
      TEMPO 2506/2508 1/2SM FG SCT002
     FM251200 12012KT P6SM OVC250
     FM252100 12020G30KT P6SM BKN080
     FM260300 12015G25KT P6SM BKN080=



000
FTUS45 KBOI 250535 AAA
TAFMYL
TAF AMD
KMYL 250535Z 2506/2606 00000KT 6SM BR VCFG BKN003
      TEMPO 2506/2508 1/2SM FG OVC003
     FM250800 00000KT 1/2SM FG OVC001
     FM251900 17011KT P6SM FEW060
     FM260300 15010KT P6SM -SHRA SCT030 OVC050=



000
FTUS45 KBOI 250520
TAFBOI
TAF
KBOI 250520Z 2506/2606 14005KT 6SM BR SCT200
     FM251500 13012KT P6SM SCT200
     FM252300 14010KT P6SM BKN100=



000
FTUS45 KBOI 250520
TAFBNO
TAF
KBNO 250520Z 2506/2606 VRB03KT P6SM BKN250
     FM251500 14015KT P6SM SCT080
     FM251900 17025G35KT P6SM BKN080
     FM260100 18015G25KT P6SM -SHRA SCT030 OVC050=



000
FTUS45 KBOI 250520
TAFBKE
TAF
KBKE 250520Z 2506/2606 13005KT P6SM OVC250
     FM251200 12012KT P6SM OVC250
     FM252100 12020G30KT P6SM BKN080
     FM260300 12015G25KT P6SM BKN080=



000
FTUS45 KBOI 250520
TAFMYL
TAF
KMYL 250520Z 2506/2606 VRB03KT P6SM VCFG BKN200
     FM251900 17011KT P6SM FEW060
     FM260300 15010KT P6SM -SHRA SCT030 OVC050=



000
FTUS45 KBOI 250520
TAFTWF
TAF
KTWF 250520Z 2506/2606 13007KT P6SM SKC
     FM252300 21012KT P6SM SKC
     FM260300 24018KT P6SM SCT100=



000
FTUS45 KBOI 250520
TAFJER
TAF
KJER 250520Z 2506/2606 04016KT P6SM SKC
     FM252300 24008KT P6SM SKC
     FM260300 21006KT P6SM SCT100=



000
FTUS45 KBOI 250258 AAA
TAFBNO
TAF AMD
KBNO 250258Z 2503/2524 05010KT P6SM SKC
     FM250600 09005KT P6SM SKC
     FM251500 14015KT P6SM SCT080
     FM252000 15022G32KT P6SM BKN080=



000
FTUS45 KBOI 242320
TAFMYL
TAF
KMYL 242320Z 2500/2524 17006KT P6SM SCT015 BKN090
     FM250100 VRB03KT P6SM FEW060 SCT100
     FM251200 16007KT P6SM FEW060
     FM252100 17011KT P6SM FEW060=



000
FTUS45 KBOI 242320
TAFJER
TAF
KJER 242320Z 2500/2524 06007KT P6SM SKC
     FM250600 05015KT P6SM SKC
     FM252100 21006KT P6SM SKC=



000
FTUS45 KBOI 242320
TAFBKE
TAF
KBKE 242320Z 2500/2524 09010KT P6SM SCT015 SCT050
     FM250400 12008KT P6SM SKC
     FM251200 12012KT P6SM SKC
     FM251800 12015G25KT P6SM SKC=



000
FTUS45 KBOI 242320
TAFTWF
TAF
KTWF 242320Z 2500/2524 04007KT P6SM SKC
     FM250300 13007KT P6SM SKC
     FM251500 14012KT P6SM SKC
     FM252100 21012KT P6SM SKC=



000
FTUS45 KBOI 242320
TAFBNO
TAF
KBNO 242320Z 2500/2524 05010KT P6SM SKC
     FM250300 04005KT P6SM SKC
     FM251500 14015KT P6SM SCT080
     FM252000 15022G32KT P6SM BKN080=



000
FTUS45 KBOI 242320
TAFBOI
TAF
KBOI 242320Z 2500/2524 13007KT P6SM SKC
     FM251200 13012KT P6SM SKC=



000
FTUS45 KBOI 242204 AAA
TAFBKE
TAF AMD
KBKE 242204Z 2422/2518 09011KT P6SM SCT015 SCT060 BKN100
     FM250600 12010KT P6SM SKC=



000
FTUS45 KBOI 241954 AAA
TAFMYL
TAF AMD
KMYL 241954Z 2420/2518 VRB03KT P6SM -RA BKN005 OVC025
     FM242200 17006KT P6SM VCSH FEW005 SCT025 BKN060
     FM250100 VRB03KT P6SM FEW060 SCT100=



000
FTUS45 KBOI 241954 AAA
TAFMYL
TAF AMD
KMYL 241954Z 2420/2518 VRB03KT P6SM -RA BKN005 OVC025
     FM242200 17006KT P6SM VCSH FEW005 SCT025 BKN060
     FM250100 VRB03KT P6SM FEW060 SCT100=



000
FTUS45 KBOI 241938 AAA
TAFBNO
TAF AMD
KBNO 241938Z 2420/2518 05013KT P6SM -RA FEW015 OVC070
     FM242100 12006KT P6SM SCT070 BKN100
     FM250600 08005KT P6SM SCT120=



000
FTUS45 KBOI 241731
TAFTWF
TAF
KTWF 241731Z 2418/2518 04007KT P6SM SKC
     FM250200 15007KT P6SM SKC=



000
FTUS45 KBOI 241731
TAFJER
TAF
KJER 241731Z 2418/2518 06007KT P6SM SKC
     FM251000 05015KT P6SM SKC=



000
FTUS45 KBOI 241731
TAFMYL
TAF
KMYL 241731Z 2418/2518 VRB05KT P6SM -RA OVC040
     FM242100 17006KT P6SM VCSH SCT040 BKN060
     FM250100 VRB03KT P6SM FEW060 SCT100=



000
FTUS45 KBOI 241731
TAFBNO
TAF
KBNO 241731Z 2418/2518 VRB03KT P6SM -RA FEW015 OVC070
     FM242100 12006KT P6SM SCT070 BKN100
     FM250600 08005KT P6SM SCT120=



000
FTUS45 KBOI 241731
TAFBOI
TAF
KBOI 241731Z 2418/2518 VRB03KT P6SM OVC100
     FM242100 13006KT P6SM SCT120=



000
FTUS45 KBOI 241731
TAFBKE
TAF
KBKE 241731Z 2418/2518 11005KT P6SM -RA BKN060 OVC080
     FM242200 13010KT P6SM SCT060 BKN100
     FM250600 12010KT P6SM SKC=



000
FTUS45 KBOI 241519 AAA
TAFMYL
TAF AMD
KMYL 241519Z 2415/2512 01005KT P6SM -RA OVC035
     FM242100 16008KT P6SM VCSH SCT020 BKN150
     FM250100 VRB04KT P6SM FEW100 SCT250=



000
FTUS45 KBOI 241406 AAA
TAFBKE
TAF AMD
KBKE 241406Z 2414/2512 VRB03KT P6SM -RA FEW050 OVC060
      TEMPO 2414/2416 00000KT 5SM -RA BR BKN025 OVC050
     FM242100 13011KT P6SM FEW100 BKN250
     FM250600 13008KT P6SM SCT250=



000
FTUS45 KBOI 241406 AAA
TAFBKE
TAF AMD
KBKE 241406Z 2414/2512 VRB03KT P6SM -RA FEW050 OVC060
      TEMPO 2414/2416 00000KT 5SM -RA BR BKN025 OVC050
     FM242100 13011KT P6SM FEW100 BKN250
     FM250600 13008KT P6SM SCT250=



000
FTUS45 KBOI 241143
TAFMYL
TAF
KMYL 241143Z 2412/2512 35005KT P6SM -SHRA OVC035
      TEMPO 2412/2416 00000KT 3SM BR OVC006
     FM242100 16008KT P6SM VCSH SCT020 BKN150
     FM250100 VRB04KT P6SM FEW100 SCT250=



000
FTUS45 KBOI 241141
TAFBKE
TAF
KBKE 241141Z 2412/2512 VRB06KT P6SM -SHRA OVC080
      TEMPO 2412/2416 00000KT 5SM -RA BR BKN025 OVC050
     FM242100 13011KT P6SM FEW100 BKN250
     FM250600 13008KT P6SM SCT250=



000
FTUS45 KBOI 241137
TAFBNO
TAF
KBNO 241137Z 2412/2512 00000KT 4SM -RA BR BKN015 OVC030
      TEMPO 2412/2415 VRB03KT P6SM -SHRA SCT030 BKN045 OVC080
     FM241800 13008KT P6SM FEW100 BKN250
      TEMPO 2509/2512 00000KT 6SM BR SKC=



000
FTUS45 KBOI 241131
TAFTWF
TAF
KTWF 241131Z 2412/2512 VRB06KT P6SM OVC100
     FM241500 VRB06KT P6SM FEW100
     FM250200 18007KT P6SM FEW250=



000
FTUS45 KBOI 241131
TAFJER
TAF
KJER 241131Z 2412/2512 26008KT P6SM OVC100
     FM241500 06011KT P6SM FEW100
     FM251000 05015KT P6SM FEW250=



000
FTUS45 KBOI 241124
TAFBOI
TAF
KBOI 241124Z 2412/2512 13005KT P6SM -SHRA SCT080 OVC120
     FM241400 13006KT P6SM FEW080 BKN150
     FM241700 13011KT P6SM SCT250=



000
FTUS45 KBOI 240813 AAA
TAFMYL
TAF AMD
KMYL 240813Z 2408/2506 35005KT P6SM -SHRA OVC035
      TEMPO 2410/2414 00000KT 3SM BR FEW002 BKN015
     FM242100 16008KT P6SM VCSH SCT020
     FM250100 VRB06KT P6SM FEW100=



000
FTUS45 KBOI 240813 AAA
TAFMYL
TAF AMD
KMYL 240813Z 2408/2506 35005KT P6SM -SHRA OVC035
      TEMPO 2410/2414 00000KT 3SM BR FEW002 BKN015
     FM242100 16008KT P6SM VCSH SCT020
     FM250100 VRB06KT P6SM FEW100=



000
FTUS45 KBOI 240520
TAFBOI
TAF
KBOI 240520Z 2406/2506 13007KT P6SM VCSH OVC060
     FM241400 13012KT P6SM FEW080=



000
FTUS45 KBOI 240520
TAFJER
TAF
KJER 240520Z 2406/2506 26008KT P6SM OVC100
     FM240900 06011KT P6SM FEW100=



000
FTUS45 KBOI 240520
TAFTWF
TAF
KTWF 240520Z 2406/2506 VRB06KT P6SM BKN100
     FM240900 VRB06KT P6SM FEW100=



000
FTUS45 KBOI 240520
TAFMYL
TAF
KMYL 240520Z 2406/2506 15007KT P6SM -RA OVC015
     FM240900 15007KT 3SM -SHRA BR OVC009
     FM241700 16008KT P6SM -SHRA OVC015
     FM242100 16008KT P6SM VCSH SCT020
     FM250100 VRB06KT P6SM FEW100=



000
FTUS45 KBOI 240520
TAFBKE
TAF
KBKE 240520Z 2406/2506 17012KT P6SM VCSH OVC090
     FM241100 13011KT P6SM -SHRA SCT025 OVC035
     FM242100 13008KT P6SM FEW100=



000
FTUS45 KBOI 240520
TAFBNO
TAF
KBNO 240520Z 2406/2506 VRB06KT P6SM -SHRA OVC040
     FM240900 VRB06KT P6SM -SHRA OVC025
     FM241800 VRB06KT P6SM FEW100=



000
FTUS45 KBOI 232320
TAFBOI
TAF
KBOI 232320Z 2400/2424 13007KT P6SM VCSH BKN080
     FM241800 13012KT P6SM FEW080=



000
FTUS45 KBOI 232320
TAFJER
TAF
KJER 232320Z 2400/2424 25010KT P6SM BKN100
     FM240200 05008KT P6SM SCT100
     FM240900 06010KT P6SM FEW100=



000
FTUS45 KBOI 232320
TAFBNO
TAF
KBNO 232320Z 2400/2424 19010KT P6SM -SHRA OVC040
     FM240300 VRB05KT P6SM -SHRA OVC035
     FM241800 04018KT P6SM FEW035=



000
FTUS45 KBOI 232320
TAFTWF
TAF
KTWF 232320Z 2400/2424 VRB06KT P6SM BKN100
     FM240900 18007KT P6SM FEW100=



000
FTUS45 KBOI 232320
TAFMYL
TAF
KMYL 232320Z 2400/2424 15010KT P6SM -RA SCT015 OVC030
      TEMPO 2400/2404 BKN015
     FM240400 15007KT P6SM -RA OVC015
     FM240900 15007KT 3SM -SHRA BR OVC009
     FM241700 16008KT P6SM -SHRA OVC015
     FM242100 16008KT P6SM VCSH SCT020=



000
FTUS45 KBOI 232320
TAFBKE
TAF
KBKE 232320Z 2400/2424 17012KT P6SM -SHRA SCT040 OVC060
     FM240300 13011KT P6SM -SHRA BKN025 OVC050
     FM242000 11012KT P6SM VCSH FEW030=



000
FTUS45 KBOI 232112 AAB
TAFMYL
TAF AMD
KMYL 232112Z 2321/2418 15010KT P6SM -RA SCT015 BKN025 OVC040
      TEMPO 2321/2401 OVC015
     FM240600 15007KT P6SM -RA SCT025 OVC040=



000
FTUS45 KBOI 232044 AAA
TAFMYL
TAF AMD
KMYL 232044Z 2321/2418 16008KT P6SM -RA SCT015 BKN025 OVC040
     FM240600 15007KT P6SM -RA SCT025 OVC040=



000
FTUS45 KBOI 231737
TAFBNO
TAF
KBNO 231737Z 2318/2418 17010KT P6SM VCSH BKN070
     FM240300 VRB03KT P6SM -SHRA SCT040 OVC070=



000
FTUS45 KBOI 231737
TAFBOI
TAF
KBOI 231737Z 2318/2418 12010KT P6SM -RA OVC080
     FM240000 13007KT P6SM VCSH BKN080=



000
FTUS45 KBOI 231737
TAFBKE
TAF
KBKE 231737Z 2318/2418 09012KT P6SM -RA OVC040
     FM232100 13012G20KT P6SM -SHRA SCT040 OVC060
     FM240300 VRB03KT P6SM -SHRA OVC050=



000
FTUS45 KBOI 231737
TAFMYL
TAF
KMYL 231737Z 2318/2418 14010KT P6SM -RA SCT025 OVC050
     FM240600 15007KT P6SM -RA OVC020=



000
FTUS45 KBOI 231737
TAFJER
TAF
KJER 231737Z 2318/2418 22008KT P6SM SCT100
     FM232200 25010KT P6SM SCT100
     FM240200 16005KT P6SM BKN100
     FM240900 19010KT P6SM SCT100=



000
FTUS45 KBOI 231737
TAFTWF
TAF
KTWF 231737Z 2318/2418 22010KT P6SM SCT100
     FM240300 16007KT P6SM BKN100
     FM241400 19007KT P6SM SCT100=



000
FTUS45 KBOI 231501 AAA
TAFTWF
TAF AMD
KTWF 231501Z 2315/2412 19012KT P6SM SCT120
     FM231800 26010KT P6SM SCT060 OVC100
     FM240300 18007KT P6SM OVC100=



000
FTUS45 KBOI 231133
TAFBNO
TAF
KBNO 231133Z 2312/2412 13006KT P6SM -SHRA SCT060 OVC100
     FM231800 21012G20KT P6SM -SHRA FEW025 OVC050
     FM232300 23010KT P6SM -SHRA SCT025 OVC050
     FM240300 27007KT P6SM VCSH SCT025 OVC050=



000
FTUS45 KBOI 231133
TAFBKE
TAF
KBKE 231133Z 2312/2412 11011KT P6SM -SHRA OVC050
     FM232100 13012G18KT P6SM -SHRA SCT025 OVC050
     FM240300 VRB05KT P6SM -SHRA OVC050=



000
FTUS45 KBOI 231133
TAFBOI
TAF
KBOI 231133Z 2312/2412 13011KT P6SM -RA OVC050
     FM231500 13011KT P6SM -SHRA OVC050
     FM240300 12007KT P6SM -RA BKN040 OVC050=



000
FTUS45 KBOI 231133
TAFMYL
TAF
KMYL 231133Z 2312/2412 15010KT P6SM -RA OVC025
     FM231800 17010KT P6SM -RA OVC015
     FM240600 15007KT P6SM -SHRA OVC020=



000
FTUS45 KBOI 231133
TAFJER
TAF
KJER 231133Z 2312/2412 06012KT P6SM OVC100
     FM231900 28010KT P6SM VCSH BKN060 OVC100
     FM240300 VRB05KT P6SM BKN060 OVC090=



000
FTUS45 KBOI 231133
TAFTWF
TAF
KTWF 231133Z 2312/2412 14006KT P6SM OVC100
     FM231800 26010KT P6SM SCT060 OVC100
     FM240300 18007KT P6SM OVC100=



000
FTUS45 KBOI 230915 AAA
TAFMYL
TAF AMD
KMYL 230915Z 2309/2406 15009KT P6SM -RA OVC025
     FM231500 16009KT P6SM -RA BKN020 OVC040
     FM232000 17009KT 6SM -RA BR SCT015 OVC020=



    US Dept of Commerce
    National Oceanic and Atmospheric Administration
    National Weather Service
    1325 East West Highway
    Silver Spring, MD 20910
    Page Author: NWS Internet Services Team
Disclaimer
Information Quality
Credits
Glossary
Privacy Policy
Freedom of Information Act (FOIA)
About Us
Career Opportunities